TENO2: Tenkiller Lake

Data processed at Thu Feb 15 2018 23:30


All information presented herein is the property of the government of the United States of America and may be revised or deleted at any time without prior notice.
Dissemination of this information without the expressed written consent of the Public Affairs Office, Tulsa District U.S. Army Corps of Engineers is strictly prohibited.
These data are gathered electronically and, as presented, have not undergone any form of quality control. These data are not guaranteed to be valid or correct.
Go to home page.
Go to station list.

Upstream stations:

Downstream station:
Previous Day
Next Day
Current Day
    
SHEF ID:       TENO2     Tenkiller Lake
STATION TYPE:  Reservoir
Normal Pool:  Bottom =   594.50, Top =   632.00

               PRECIP PRECIP(A) ELEVATION   STORAGE   TW-ELEV    INFLOW   RELEASE  AIR-TEMP  WIND-DIRWIND-SPEED REL-HUMID SOLAR-RAD   VOLTAGE  BAT-LOAD
                   in        in        ft     ac-ft        ft       cfs       cfs         F       deg       mph         %      W/m2      volt      volt
              Ccp-Rev   Ccp-Rev   Ccp-Rev   Ccp-Rev   Ccp-Rev  Regi-Rev  Regi-Rev   Ccp-Rev   Ccp-Rev   Ccp-Rev   Ccp-Rev   Ccp-Rev   Ccp-Rev   Ccp-Rev
(US/Central)
02/13 00:00      0.00      0.00    625.41    587514    482.09       126         0     37.90     72.00      0.20     40.84      0.00     13.72     13.36
02/13 01:00      0.00      0.00    625.42    587630    482.08        70         0     38.01    101.20      3.00     39.98      0.00     13.71     13.30
02/13 02:00      ----      ----    625.40    587398    482.08       161         0     36.70    105.30      3.95     44.19      0.00      ----      ----
02/13 03:00      0.00      0.00    625.43    587747    482.08       253         0     35.26     89.10      3.93     51.28      1.00     13.71     13.30
02/13 04:00      0.00      0.00    625.42    587630    482.08       242         0     34.29     86.70      1.67     56.78      0.00     13.71     13.30
02/13 05:00      0.00      0.00    625.40    587398    483.42       220         0     33.06     86.80      1.30     60.80      1.00     13.72     13.24
02/13 06:00      0.00      0.00    625.39    587281    486.99       205      3550     33.62     80.90      2.64     60.68      1.00     13.72     13.12
02/13 07:00      0.00      0.00    625.36    586932    486.89       125      3814     34.72    106.30      2.03     61.71      0.00     13.72     13.12
02/13 08:00      0.00      0.00    625.34    586699    486.95        45      3814     34.72    101.50      2.50     60.07      4.00     13.72     13.12
02/13 09:00      0.00      0.00    625.30    586234    486.96        67      3814     35.71    112.70      2.16     59.70     36.00     13.72     13.12
02/13 10:00      0.00      0.00    625.28    586001    486.66        90      3814     37.24    105.40      3.02     58.36    142.00     13.72     13.12
02/13 11:00      0.00      0.00    625.30    586234    482.57        78       274     39.33     98.30      3.35     58.72    210.00     13.71     13.18
02/13 12:00      0.00      0.00    625.28    586001    482.19        67         0     42.08    158.10      1.73     57.75    439.00     13.71     13.18
02/13 13:00      0.00      0.00    625.29    586117    482.14       336         0     43.84    128.60      2.32     56.40    421.00     13.71     13.30
02/13 14:00      0.00      0.00    625.28    586001    482.13       309         0     46.04    186.10      1.42     54.27    276.00     13.71     13.30
02/13 15:00      0.00      0.00    625.29    586117    482.12       282         0     47.14    164.50      1.56     53.47    239.00     13.71     13.30
02/13 16:00      0.00      0.00    625.30    586234    482.12       563         0     46.80     99.30      3.06     53.90    107.00     13.72     13.30
02/13 17:00      0.00      0.00    625.29    586117    482.11       567         0     47.03    115.60      1.75     55.85     40.00     13.71     13.30
02/13 18:00      0.00      0.00    625.30    586234    482.11       285         0     46.80     86.10      1.13     57.26     11.00     13.71     13.30
02/13 19:00      0.00      0.00    625.29    586117    482.11       285         0     46.47     92.00      0.75     57.87      1.00     13.71     13.30
02/13 20:00      0.00      0.00    625.29    586117    482.10       285         0     46.04    103.30      2.41     59.82      0.00     13.71     13.30
02/13 21:00      0.00      0.00    625.31    586350    482.10         3         0     45.81    108.90      1.91     63.12      0.00     13.72     13.30
02/13 22:00      0.00      0.00    625.30    586234    482.10         0         0     45.50    103.20      2.71     67.64      0.00     13.71     13.24
02/13 23:00      0.00      0.00    625.29    586117    482.10       282         0     45.61    103.20      1.79     71.06      0.00     13.72     13.24